createdAt,value
2023-02-13T00:04:55.463Z,100333.75
2023-02-13T00:09:57.628Z,100328.41
2023-02-13T00:15:00.384Z,100327.94
2023-02-13T00:20:02.295Z,100333.06
2023-02-13T00:25:05.920Z,100316.94
2023-02-13T00:30:08.703Z,100310.19
2023-02-13T00:35:10.605Z,100309.91
2023-02-13T00:40:12.870Z,100309.69
2023-02-13T00:45:14.707Z,100318.34
2023-02-13T00:50:16.661Z,100314.84
2023-02-13T00:55:18.488Z,100316.75
2023-02-13T01:00:20.684Z,100319.41
2023-02-13T01:05:23.092Z,100318.34
2023-02-13T01:10:25.108Z,100321.09
2023-02-13T01:15:27.053Z,100318.91
2023-02-13T01:20:30.511Z,100311.91
2023-02-13T01:25:32.376Z,100322.66
2023-02-13T01:30:34.928Z,100306.47
2023-02-13T01:35:40.170Z,100307.03
2023-02-13T01:40:47.656Z,100301.34
2023-02-13T01:45:53.736Z,100307.03
2023-02-13T01:51:00.993Z,100309.44
2023-02-13T01:56:09.503Z,100301.06
2023-02-13T02:01:11.938Z,100301.31
2023-02-13T02:06:25.674Z,100299.34
2023-02-13T02:11:36.225Z,100299.56
2023-02-13T02:16:39.852Z,100291.91
2023-02-13T02:22:00.454Z,100284.56
2023-02-13T02:27:15.297Z,100284.00
2023-02-13T02:32:34.309Z,100284.44
2023-02-13T02:37:53.057Z,100287.94
2023-02-13T02:43:13.943Z,100292.28
2023-02-13T02:49:07.573Z,100288.81
2023-02-13T02:54:53.417Z,100288.81
2023-02-13T03:00:16.001Z,100294.22
2023-02-13T03:05:41.877Z,100291.56
2023-02-13T03:11:02.616Z,100296.97
2023-02-13T03:16:23.757Z,100292.16
2023-02-13T03:22:02.395Z,100297.50
2023-02-13T03:27:57.610Z,100299.63
2023-02-13T03:33:24.705Z,100290.38
2023-02-13T03:39:00.420Z,100296.88
2023-02-13T03:44:13.754Z,100299.53
2023-02-13T03:49:57.459Z,100303.31
2023-02-13T03:55:23.482Z,100304.94
2023-02-13T04:00:30.626Z,100298.94
2023-02-13T04:05:37.082Z,100304.88
2023-02-13T04:10:50.586Z,100299.34
2023-02-13T04:16:42.193Z,100298.59
2023-02-13T04:21:43.959Z,100296.00
2023-02-13T04:26:46.367Z,100297.03
2023-02-13T04:31:48.542Z,100304.34
2023-02-13T04:36:50.462Z,100294.31
2023-02-13T04:41:52.292Z,100299.72
2023-02-13T04:46:54.105Z,100302.97
2023-02-13T04:51:56.205Z,100297.84
2023-02-13T04:56:58.082Z,100298.59
2023-02-13T05:01:59.969Z,100300.66
2023-02-13T05:07:01.821Z,100298.75
2023-02-13T05:12:03.946Z,100296.28
2023-02-13T05:17:06.035Z,100286.16
2023-02-13T05:22:28.604Z,100285.75
2023-02-13T05:27:30.425Z,100296.31
2023-02-13T05:32:32.261Z,100302.81
2023-02-13T05:37:34.124Z,100294.44
2023-02-13T05:42:36.209Z,100298.53
2023-02-13T05:47:38.079Z,100301.56
2023-02-13T05:52:39.915Z,100300.47
2023-02-13T05:57:41.742Z,100299.94
2023-02-13T06:02:43.701Z,100300.44
2023-02-13T06:07:45.607Z,100304.75
2023-02-13T06:12:47.432Z,100309.06
2023-02-13T06:17:49.258Z,100310.41
2023-02-13T06:22:52.351Z,100311.44
2023-02-13T06:27:54.528Z,100310.91
2023-02-13T06:32:56.462Z,100320.00
2023-02-13T06:37:58.454Z,100323.00
2023-02-13T06:43:00.394Z,100324.59
2023-02-13T06:48:02.257Z,100332.13
2023-02-13T06:53:04.148Z,100341.09
2023-02-13T06:58:06.494Z,100339.44
2023-02-13T07:03:10.082Z,100347.53
2023-02-13T07:08:12.902Z,100353.47
2023-02-13T07:13:14.775Z,100348.41
2023-02-13T07:18:16.617Z,100345.34
2023-02-13T07:23:18.510Z,100353.72
2023-02-13T07:28:20.442Z,100354.03
2023-02-13T07:33:23.013Z,100356.97
2023-02-13T07:38:24.878Z,100351.81
2023-02-13T07:43:27.291Z,100349.13
2023-02-13T07:48:29.751Z,100349.19
2023-02-13T07:53:32.404Z,100346.50
2023-02-13T07:58:34.312Z,100358.34
2023-02-13T08:03:36.323Z,100353.25
2023-02-13T08:08:38.963Z,100352.94
2023-02-13T08:13:41.804Z,100347.50
2023-02-13T08:18:43.677Z,100366.59
2023-02-13T08:23:45.542Z,100365.75
2023-02-13T08:28:47.466Z,100370.00
2023-02-13T08:33:49.303Z,100367.38
2023-02-13T08:38:51.307Z,100367.31
2023-02-13T08:43:54.375Z,100365.78
2023-02-13T08:48:56.267Z,100384.16
2023-02-13T08:53:58.088Z,100388.00
2023-02-13T08:59:00.040Z,100382.56
2023-02-13T09:04:01.906Z,100381.03
2023-02-13T09:09:05.351Z,100372.34
2023-02-13T09:14:07.531Z,100386.97
2023-02-13T09:19:09.414Z,100392.06
2023-02-13T09:24:11.478Z,100396.94
2023-02-13T09:29:13.383Z,100393.44
2023-02-13T09:34:15.272Z,100389.69
2023-02-13T09:39:17.137Z,100393.44
2023-02-13T09:44:34.169Z,100385.78
2023-02-13T09:49:40.735Z,100389.09
2023-02-13T09:54:42.774Z,100400.69
2023-02-13T09:59:57.513Z,100403.94
2023-02-13T10:05:19.275Z,100396.09
2023-02-13T10:10:32.934Z,100404.97
2023-02-13T10:15:40.316Z,100394.91
2023-02-13T10:20:55.990Z,100401.84
2023-02-13T10:26:03.949Z,100400.94
2023-02-13T10:31:12.826Z,100394.97
2023-02-13T10:36:28.589Z,100385.44
2023-02-13T10:41:30.353Z,100387.00
2023-02-13T11:26:12.069Z,100343.50
2023-02-13T11:31:22.960Z,100347.75
2023-02-13T11:36:33.809Z,100349.25
2023-02-13T11:41:43.825Z,100343.19
2023-02-13T11:46:51.277Z,100332.31
2023-02-13T11:51:56.118Z,100327.50
2023-02-13T11:57:05.508Z,100320.31
2023-02-13T12:02:14.192Z,100324.00
2023-02-13T12:07:26.758Z,100315.84
2023-02-13T12:12:56.500Z,100314.75
2023-02-13T12:18:09.529Z,100307.16
2023-02-13T12:23:27.456Z,100303.38
2023-02-13T12:28:58.189Z,100305.75
2023-02-13T12:34:09.060Z,100292.06
2023-02-13T12:39:40.402Z,100291.66
2023-02-13T12:45:00.604Z,100289.75
2023-02-13T12:50:30.184Z,100277.31
2023-02-13T12:55:31.946Z,100285.91
2023-02-13T13:01:01.788Z,100279.31
2023-02-13T13:06:22.713Z,100288.06
2023-02-13T13:12:12.219Z,100277.59
2023-02-13T13:17:22.958Z,100273.78
2023-02-13T13:22:38.838Z,100272.69
2023-02-13T13:27:45.723Z,100273.56
2023-02-13T13:32:54.861Z,100269.06
2023-02-13T13:38:08.686Z,100276.69
2023-02-13T13:43:37.610Z,100284.19
2023-02-13T13:49:01.427Z,100273.41
2023-02-13T13:54:03.203Z,100284.50
2023-02-13T13:59:17.437Z,100277.84
2023-02-13T14:04:43.586Z,100274.19
2023-02-13T14:09:46.254Z,100282.59
2023-02-13T14:14:48.250Z,100285.16
2023-02-13T14:19:53.279Z,100285.38
2023-02-13T14:24:58.466Z,100288.09
2023-02-13T14:30:01.544Z,100279.50
2023-02-13T14:35:12.716Z,100277.47
2023-02-13T14:40:17.754Z,100261.38
2023-02-13T14:45:27.398Z,100270.75
2023-02-13T14:50:46.026Z,100276.72
2023-02-13T14:55:54.006Z,100263.84
2023-02-13T15:06:44.510Z,100250.03
2023-02-13T15:11:47.487Z,100243.28
2023-02-13T15:16:54.834Z,100228.00
2023-02-13T15:22:02.079Z,100235.31
2023-02-13T15:27:07.594Z,100230.16
2023-02-13T15:53:16.913Z,100221.59
2023-02-13T15:58:18.916Z,100222.94
2023-02-13T16:03:21.106Z,100250.00
2023-02-13T16:08:36.106Z,100249.53
2023-02-13T16:13:38.125Z,100238.91
2023-02-13T16:18:40.952Z,100239.22
2023-02-13T16:23:45.398Z,100246.47
2023-02-13T16:28:47.749Z,100237.53
2023-02-13T16:33:49.735Z,100232.78
2023-02-13T16:38:51.667Z,100235.03
2023-02-13T16:43:58.600Z,100238.25
2023-02-13T16:49:03.682Z,100240.44
2023-02-13T16:54:11.439Z,100254.97
2023-02-13T16:59:22.516Z,100242.47
2023-02-13T17:04:25.468Z,100226.91
2023-02-13T17:09:27.346Z,100228.09
2023-02-13T17:14:29.172Z,100231.00
2023-02-13T17:19:31.036Z,100230.28
2023-02-13T17:24:33.095Z,100214.66
2023-02-13T17:29:34.918Z,100226.00
2023-02-13T17:34:36.774Z,100212.78
2023-02-13T17:39:39.193Z,100221.63
2023-02-13T17:44:41.029Z,100213.66
2023-02-13T17:49:42.916Z,100218.47
2023-02-13T17:54:45.517Z,100225.47
2023-02-13T17:59:48.015Z,100235.41
2023-02-13T18:04:51.109Z,100211.41
2023-02-13T18:09:52.970Z,100214.78
2023-02-13T18:14:55.039Z,100208.81
2023-02-13T18:19:58.085Z,100238.44
2023-02-13T18:25:01.406Z,100229.72
2023-02-13T18:30:03.964Z,100224.97
2023-02-13T18:35:07.483Z,100231.94
2023-02-13T18:40:10.157Z,100230.66
2023-02-13T18:45:12.417Z,100228.72
2023-02-13T18:50:14.280Z,100231.94
2023-02-13T18:55:16.840Z,100225.97
2023-02-13T19:00:22.668Z,100217.34
2023-02-13T19:05:24.981Z,100201.75
2023-02-13T19:10:27.255Z,100198.09
2023-02-13T19:15:29.139Z,100200.69
2023-02-13T19:20:31.501Z,100192.03
2023-02-13T19:25:38.446Z,100192.31
2023-02-13T19:30:40.536Z,100194.50
2023-02-13T19:35:43.301Z,100201.53
2023-02-13T19:40:46.149Z,100211.41
2023-02-13T19:45:48.080Z,100235.88
2023-02-13T19:50:49.906Z,100231.72
2023-02-13T19:55:59.654Z,100227.94
2023-02-13T20:01:16.388Z,100230.78
2023-02-13T20:06:28.321Z,100234.56
2023-02-13T20:11:30.206Z,100239.38
2023-02-13T20:16:35.191Z,100232.88
2023-02-13T20:21:37.918Z,100240.94
2023-02-13T20:26:40.722Z,100244.38
2023-02-13T20:31:42.745Z,100247.19
2023-02-13T20:36:45.171Z,100240.69
2023-02-13T20:41:50.441Z,100252.44
2023-02-13T20:46:53.172Z,100248.88
2023-02-13T20:51:55.785Z,100235.75
2023-02-13T20:56:57.638Z,100243.59
2023-02-13T21:01:59.677Z,100256.72
2023-02-13T21:07:01.596Z,100262.91
2023-02-13T21:12:06.001Z,100248.41
2023-02-13T21:17:09.697Z,100240.34
2023-02-13T21:22:12.216Z,100244.97
2023-02-13T21:27:14.340Z,100243.31
2023-02-13T21:32:16.231Z,100243.81
2023-02-13T21:37:18.112Z,100247.28
2023-02-13T21:42:20.272Z,100241.91
2023-02-13T21:47:22.148Z,100248.88
2023-02-13T21:52:24.220Z,100248.38
2023-02-13T21:57:26.138Z,100248.88
2023-02-13T22:02:28.873Z,100244.59
2023-02-13T22:07:30.776Z,100249.38
2023-02-13T22:12:32.642Z,100250.41
2023-02-13T22:17:36.860Z,100254.16
2023-02-13T22:22:38.697Z,100250.88
2023-02-13T22:27:49.096Z,100244.69
2023-02-13T22:32:50.914Z,100266.63
2023-02-13T22:37:52.734Z,100272.03
2023-02-13T22:42:54.547Z,100272.03
2023-02-13T22:47:56.459Z,100274.50
2023-02-13T22:52:58.464Z,100272.91
2023-02-13T22:58:00.285Z,100282.34
2023-02-13T23:03:02.092Z,100279.06
2023-02-13T23:08:04.035Z,100295.22
2023-02-13T23:13:10.608Z,100289.25
2023-02-13T23:18:15.584Z,100288.44
2023-02-13T23:23:17.701Z,100294.66
2023-02-13T23:28:19.471Z,100298.94
2023-02-13T23:33:21.650Z,100302.72
2023-02-13T23:38:23.932Z,100294.63
2023-02-13T23:43:25.702Z,100301.63
2023-02-13T23:48:27.471Z,100287.00
2023-02-13T23:53:29.366Z,100288.13
2023-02-13T23:58:31.154Z,100280.03
